Pagina principală
METAR-TAF:

METAR-TAF

Aeroporturi :

Aeroportul Internațional Maramures

Baia Mare, România

Latitudine: 47-40N, longitudine: 023-35E, elevație: 218 m

Observații meteo curente

Raportul a fost făcut în urmă cu 30 de minute, la 00:30 UTC
Vânt 3 kt de la Nord-est
Temperatură 19°C
Umiditate 60%
Presiune 1012 hPa
Vizibilitate de 10 km sau mai mult

METAR: LRBM 220030Z AUTO 05003KT 9999 OVC050/// 19/11 Q1012

Ora: 04:00 (01:00 UTC)

Prognoză

Raportul a fost făcut în urmă cu 11 ore și 0 de minute, la 14:00 UTC
Prognoză valabilă de la 21 ora 15 UTC la 22 ora 00 UTC
Vânt 10 kt de la Est/Sud-est
Vizibilitate de 10 km sau mai mult
nu există nori sub 1.500 m și nici cumulonimbus

TAF: LRBM 211400Z 2115/2200 12010KT CAVOK

Observații și prognoze meteo pentru peste 4.000 de aeroporturi (rapoarte METAR și TAF).

Stațiile disponibile sunt reprezentate pe hartă prin puncte galbene și roșii.

Țineți indicatorul mouse-ului pe punctul dorit pentru a vedea denumirea stației.

Apoi, faceți clic pentru a vedea observațiile și prognozele meteorologice.

Pentru a schimba harta: Pentru mărire, faceți clic pe butoanele verzi cu cruce neagră; pentru micșorare, pe butonul verde cu o liniuță; pentru hărți învecinate, pe săgețile verzi.


METAR-TAF: